sensor_id;sensor_type;location;lat;lon;timestamp;pressure;altitude;pressure_sealevel;temperature;humidity
46129;BME280;31860;45.186;5.790;2022-11-20T00:01:40;98900.97;;;11.12;81.78
46129;BME280;31860;45.186;5.790;2022-11-20T00:04:05;98899.25;;;11.08;81.74
46129;BME280;31860;45.186;5.790;2022-11-20T00:06:31;98898.41;;;11.05;82.01
46129;BME280;31860;45.186;5.790;2022-11-20T00:08:58;98904.50;;;11.02;81.92
46129;BME280;31860;45.186;5.790;2022-11-20T00:11:26;98896.66;;;11.02;81.86
46129;BME280;31860;45.186;5.790;2022-11-20T00:13:55;98899.28;;;11.01;81.80
46129;BME280;31860;45.186;5.790;2022-11-20T00:16:23;98898.44;;;10.99;82.10
46129;BME280;31860;45.186;5.790;2022-11-20T00:18:49;98900.16;;;10.98;82.31
46129;BME280;31860;45.186;5.790;2022-11-20T00:21:17;98904.53;;;10.96;82.84
46129;BME280;31860;45.186;5.790;2022-11-20T00:23:43;98905.41;;;10.97;82.64
46129;BME280;31860;45.186;5.790;2022-11-20T00:26:11;98915.88;;;10.95;82.34
46129;BME280;31860;45.186;5.790;2022-11-20T00:28:37;98918.50;;;10.95;82.50
46129;BME280;31860;45.186;5.790;2022-11-20T00:31:08;98912.34;;;10.98;82.78
46129;BME280;31860;45.186;5.790;2022-11-20T00:33:34;98923.69;;;10.97;82.66
46129;BME280;31860;45.186;5.790;2022-11-20T00:36:04;98919.34;;;10.97;82.73
46129;BME280;31860;45.186;5.790;2022-11-20T00:38:32;98921.94;;;10.96;82.69
46129;BME280;31860;45.186;5.790;2022-11-20T00:40:59;98919.34;;;10.94;82.86
46129;BME280;31860;45.186;5.790;2022-11-20T00:43:25;98915.84;;;10.94;83.22
46129;BME280;31860;45.186;5.790;2022-11-20T00:45:56;98920.22;;;10.95;83.09
46129;BME280;31860;45.186;5.790;2022-11-20T00:48:22;98915.00;;;10.95;83.43
46129;BME280;31860;45.186;5.790;2022-11-20T00:50:47;98921.97;;;10.93;83.40
46129;BME280;31860;45.186;5.790;2022-11-20T00:53:12;98920.22;;;10.92;83.79
46129;BME280;31860;45.186;5.790;2022-11-20T00:55:38;98922.84;;;10.93;83.38
46129;BME280;31860;45.186;5.790;2022-11-20T00:58:03;98927.22;;;10.91;83.23
46129;BME280;31860;45.186;5.790;2022-11-20T01:00:28;98928.97;;;10.89;83.28
46129;BME280;31860;45.186;5.790;2022-11-20T01:02:55;98934.22;;;10.88;83.46
46129;BME280;31860;45.186;5.790;2022-11-20T01:05:20;98933.34;;;10.87;83.51
46129;BME280;31860;45.186;5.790;2022-11-20T01:07:46;98948.16;;;10.84;83.64
46129;BME280;31860;45.186;5.790;2022-11-20T01:10:11;98950.78;;;10.84;84.01
46129;BME280;31860;45.186;5.790;2022-11-20T01:12:37;98949.91;;;10.82;83.95
46129;BME280;31860;45.186;5.790;2022-11-20T01:15:02;98956.88;;;10.81;84.01
46129;BME280;31860;45.186;5.790;2022-11-20T01:17:28;98948.16;;;10.79;83.99
46129;BME280;31860;45.186;5.790;2022-11-20T01:19:53;98956.03;;;10.78;84.00
46129;BME280;31860;45.186;5.790;2022-11-20T01:22:18;98956.88;;;10.77;84.26
46129;BME280;31860;45.186;5.790;2022-11-20T01:24:44;98958.63;;;10.78;84.17
46129;BME280;31860;45.186;5.790;2022-11-20T01:27:09;98962.97;;;10.77;84.66
46129;BME280;31860;45.186;5.790;2022-11-20T01:29:35;98961.25;;;10.78;84.47
46129;BME280;31860;45.186;5.790;2022-11-20T01:32:00;98963.88;;;10.75;84.66
46129;BME280;31860;45.186;5.790;2022-11-20T01:34:25;98965.63;;;10.74;84.63
46129;BME280;31860;45.186;5.790;2022-11-20T01:36:51;98969.09;;;10.75;84.45
46129;BME280;31860;45.186;5.790;2022-11-20T01:39:25;98970.84;;;10.73;84.57
46129;BME280;31860;45.186;5.790;2022-11-20T01:41:52;98966.50;;;10.72;84.74
46129;BME280;31860;45.186;5.790;2022-11-20T01:44:55;98963.00;;;10.71;84.85
46129;BME280;31860;45.186;5.790;2022-11-20T01:47:34;98966.50;;;10.70;85.30
46129;BME280;31860;45.186;5.790;2022-11-20T01:50:21;98961.28;;;10.70;85.07
46129;BME280;31860;45.186;5.790;2022-11-20T01:53:02;98972.59;;;10.71;85.03
46129;BME280;31860;45.186;5.790;2022-11-20T01:55:31;98968.25;;;10.68;84.54
46129;BME280;31860;45.186;5.790;2022-11-20T01:57:58;98976.09;;;10.67;84.56
46129;BME280;31860;45.186;5.790;2022-11-20T02:00:25;98971.75;;;10.63;84.46
46129;BME280;31860;45.186;5.790;2022-11-20T02:03:00;98969.19;;;10.60;83.97
46129;BME280;31860;45.186;5.790;2022-11-20T02:08:05;98968.31;;;10.58;84.11
46129;BME280;31860;45.186;5.790;2022-11-20T02:10:32;98977.88;;;10.57;84.20
46129;BME280;31860;45.186;5.790;2022-11-20T02:12:58;98970.91;;;10.58;84.34
46129;BME280;31860;45.186;5.790;2022-11-20T02:15:42;98970.91;;;10.55;83.73
46129;BME280;31860;45.186;5.790;2022-11-20T02:18:09;98967.44;;;10.52;83.29
46129;BME280;31860;45.186;5.790;2022-11-20T02:20:35;98978.75;;;10.53;82.64
46129;BME280;31860;45.186;5.790;2022-11-20T02:23:12;98976.13;;;10.55;82.21
46129;BME280;31860;45.186;5.790;2022-11-20T02:25:38;98976.16;;;10.53;81.68
46129;BME280;31860;45.186;5.790;2022-11-20T02:28:05;98971.81;;;10.52;81.21
46129;BME280;31860;45.186;5.790;2022-11-20T02:30:30;98975.28;;;10.49;80.90
46129;BME280;31860;45.186;5.790;2022-11-20T02:32:57;98972.69;;;10.49;81.03
46129;BME280;31860;45.186;5.790;2022-11-20T02:37:50;98985.75;;;10.48;80.65
46129;BME280;31860;45.186;5.790;2022-11-20T02:40:16;98982.25;;;10.49;80.28
46129;BME280;31860;45.186;5.790;2022-11-20T02:42:42;98976.16;;;10.45;79.65
46129;BME280;31860;45.186;5.790;2022-11-20T02:45:08;98971.84;;;10.44;79.29
46129;BME280;31860;45.186;5.790;2022-11-20T02:47:33;98970.97;;;10.42;79.04
46129;BME280;31860;45.186;5.790;2022-11-20T02:49:59;98982.28;;;10.40;79.70
46129;BME280;31860;45.186;5.790;2022-11-20T02:52:24;98976.19;;;10.39;80.65
46129;BME280;31860;45.186;5.790;2022-11-20T02:54:50;98973.59;;;10.38;80.19
46129;BME280;31860;45.186;5.790;2022-11-20T02:57:16;98976.22;;;10.36;79.82
46129;BME280;31860;45.186;5.790;2022-11-20T02:59:41;98976.19;;;10.33;80.19
46129;BME280;31860;45.186;5.790;2022-11-20T03:02:07;98982.31;;;10.32;80.20
46129;BME280;31860;45.186;5.790;2022-11-20T03:04:32;98978.81;;;10.33;80.52
46129;BME280;31860;45.186;5.790;2022-11-20T03:06:58;98981.44;;;10.29;80.49
46129;BME280;31860;45.186;5.790;2022-11-20T03:09:23;98984.03;;;10.26;80.80
46129;BME280;31860;45.186;5.790;2022-11-20T03:11:49;98982.34;;;10.23;80.50
46129;BME280;31860;45.186;5.790;2022-11-20T03:14:14;98976.25;;;10.20;80.36
46129;BME280;31860;45.186;5.790;2022-11-20T03:16:40;98985.81;;;10.16;80.45
46129;BME280;31860;45.186;5.790;2022-11-20T03:19:05;98984.09;;;10.14;80.74
46129;BME280;31860;45.186;5.790;2022-11-20T03:21:33;98974.50;;;10.13;80.76
46129;BME280;31860;45.186;5.790;2022-11-20T03:23:59;98978.84;;;10.08;80.47
46129;BME280;31860;45.186;5.790;2022-11-20T03:26:25;98984.06;;;10.06;79.70
46129;BME280;31860;45.186;5.790;2022-11-20T03:28:53;98977.97;;;10.04;79.50
46129;BME280;31860;45.186;5.790;2022-11-20T03:31:25;98984.91;;;10.05;79.12
46129;BME280;31860;45.186;5.790;2022-11-20T03:33:50;98982.31;;;10.04;79.04
46129;BME280;31860;45.186;5.790;2022-11-20T03:36:17;98984.06;;;10.02;79.01
46129;BME280;31860;45.186;5.790;2022-11-20T03:38:43;98985.81;;;10.03;78.82
46129;BME280;31860;45.186;5.790;2022-11-20T03:41:20;98993.63;;;10.01;78.96
46129;BME280;31860;45.186;5.790;2022-11-20T03:43:52;99001.44;;;10.01;78.71
46129;BME280;31860;45.186;5.790;2022-11-20T03:46:18;98996.25;;;9.98;78.20
46129;BME280;31860;45.186;5.790;2022-11-20T03:48:44;98999.72;;;9.99;78.33
46129;BME280;31860;45.186;5.790;2022-11-20T03:51:18;98998.84;;;9.98;77.99
46129;BME280;31860;45.186;5.790;2022-11-20T03:53:46;99000.59;;;9.98;78.33
46129;BME280;31860;45.186;5.790;2022-11-20T03:56:13;99001.47;;;9.95;78.59
46129;BME280;31860;45.186;5.790;2022-11-20T03:58:40;99005.81;;;9.96;78.29
46129;BME280;31860;45.186;5.790;2022-11-20T04:01:09;99004.97;;;9.97;78.27
46129;BME280;31860;45.186;5.790;2022-11-20T04:03:35;99012.78;;;9.97;78.19
46129;BME280;31860;45.186;5.790;2022-11-20T04:06:10;99006.69;;;9.95;77.89
46129;BME280;31860;45.186;5.790;2022-11-20T04:08:36;99004.94;;;9.96;77.75
46129;BME280;31860;45.186;5.790;2022-11-20T04:13:37;99023.22;;;9.91;77.80
46129;BME280;31860;45.186;5.790;2022-11-20T04:16:03;99022.34;;;9.91;77.76
46129;BME280;31860;45.186;5.790;2022-11-20T04:18:29;99019.72;;;9.92;77.58
46129;BME280;31860;45.186;5.790;2022-11-20T04:20:56;99018.88;;;9.95;77.52
46129;BME280;31860;45.186;5.790;2022-11-20T04:23:22;99019.72;;;9.92;77.37
46129;BME280;31860;45.186;5.790;2022-11-20T04:25:47;99034.50;;;9.89;77.66
46129;BME280;31860;45.186;5.790;2022-11-20T04:28:12;99038.84;;;9.85;77.70
46129;BME280;31860;45.186;5.790;2022-11-20T04:30:38;99044.06;;;9.81;78.03
46129;BME280;31860;45.186;5.790;2022-11-20T04:33:03;99034.50;;;9.80;77.83
46129;BME280;31860;45.186;5.790;2022-11-20T04:35:28;99043.19;;;9.76;77.61
46129;BME280;31860;45.186;5.790;2022-11-20T04:37:54;99041.47;;;9.75;77.90
46129;BME280;31860;45.186;5.790;2022-11-20T04:40:19;99041.47;;;9.72;77.57
46129;BME280;31860;45.186;5.790;2022-11-20T04:42:44;99031.03;;;9.67;78.02
46129;BME280;31860;45.186;5.790;2022-11-20T04:45:11;99032.78;;;9.65;78.37
46129;BME280;31860;45.186;5.790;2022-11-20T04:47:36;99035.34;;;9.64;78.74
46129;BME280;31860;45.186;5.790;2022-11-20T04:50:02;99036.22;;;9.64;79.06
46129;BME280;31860;45.186;5.790;2022-11-20T04:52:27;99046.66;;;9.64;79.38
46129;BME280;31860;45.186;5.790;2022-11-20T04:54:53;99044.06;;;9.63;79.51
46129;BME280;31860;45.186;5.790;2022-11-20T04:57:18;99039.69;;;9.58;79.70
46129;BME280;31860;45.186;5.790;2022-11-20T04:59:44;99052.75;;;9.58;79.98
46129;BME280;31860;45.186;5.790;2022-11-20T05:02:10;99050.13;;;9.58;79.63
46129;BME280;31860;45.186;5.790;2022-11-20T05:04:35;99049.25;;;9.56;80.48
46129;BME280;31860;45.186;5.790;2022-11-20T05:07:01;99052.75;;;9.58;80.47
46129;BME280;31860;45.186;5.790;2022-11-20T05:09:26;99050.13;;;9.58;80.49
46129;BME280;31860;45.186;5.790;2022-11-20T05:11:52;99048.41;;;9.59;79.95
46129;BME280;31860;45.186;5.790;2022-11-20T05:14:17;99048.41;;;9.61;79.93
46129;BME280;31860;45.186;5.790;2022-11-20T05:16:42;99052.72;;;9.62;79.91
46129;BME280;31860;45.186;5.790;2022-11-20T05:19:08;99047.50;;;9.62;79.99
46129;BME280;31860;45.186;5.790;2022-11-20T05:21:33;99051.88;;;9.61;79.84
46129;BME280;31860;45.186;5.790;2022-11-20T05:23:59;99045.78;;;9.61;79.61
46129;BME280;31860;45.186;5.790;2022-11-20T05:26:24;99054.47;;;9.58;79.32
46129;BME280;31860;45.186;5.790;2022-11-20T05:28:50;99054.47;;;9.56;79.36
46129;BME280;31860;45.186;5.790;2022-11-20T05:31:18;99050.97;;;9.56;79.62
46129;BME280;31860;45.186;5.790;2022-11-20T05:33:45;99054.47;;;9.53;79.28
46129;BME280;31860;45.186;5.790;2022-11-20T05:36:12;99045.78;;;9.53;79.40
46129;BME280;31860;45.186;5.790;2022-11-20T05:38:38;99051.00;;;9.53;79.52
46129;BME280;31860;45.186;5.790;2022-11-20T05:41:10;99056.22;;;9.54;79.45
46129;BME280;31860;45.186;5.790;2022-11-20T05:43:38;99051.88;;;9.55;79.80
46129;BME280;31860;45.186;5.790;2022-11-20T05:46:05;99057.09;;;9.55;79.53
46129;BME280;31860;45.186;5.790;2022-11-20T05:48:32;99053.59;;;9.54;79.17
46129;BME280;31860;45.186;5.790;2022-11-20T05:50:59;99049.25;;;9.55;79.38
46129;BME280;31860;45.186;5.790;2022-11-20T05:53:26;99042.28;;;9.54;79.58
46129;BME280;31860;45.186;5.790;2022-11-20T05:56:03;99044.91;;;9.54;79.49
46129;BME280;31860;45.186;5.790;2022-11-20T05:58:30;99048.38;;;9.54;80.00
46129;BME280;31860;45.186;5.790;2022-11-20T06:01:04;99037.09;;;9.52;79.67
46129;BME280;31860;45.186;5.790;2022-11-20T06:03:29;99043.16;;;9.54;79.87
46129;BME280;31860;45.186;5.790;2022-11-20T06:05:54;99043.16;;;9.56;79.97
46129;BME280;31860;45.186;5.790;2022-11-20T06:08:20;99047.53;;;9.55;79.78
46129;BME280;31860;45.186;5.790;2022-11-20T06:10:45;99051.88;;;9.55;79.69
46129;BME280;31860;45.186;5.790;2022-11-20T06:13:11;99044.03;;;9.56;79.69
46129;BME280;31860;45.186;5.790;2022-11-20T06:15:36;99042.31;;;9.60;79.68
46129;BME280;31860;45.186;5.790;2022-11-20T06:18:01;99039.69;;;9.60;79.58
46129;BME280;31860;45.186;5.790;2022-11-20T06:20:27;99038.84;;;9.60;79.59
46129;BME280;31860;45.186;5.790;2022-11-20T06:22:52;99044.94;;;9.65;79.24
46129;BME280;31860;45.186;5.790;2022-11-20T06:25:17;99053.63;;;9.65;78.85
46129;BME280;31860;45.186;5.790;2022-11-20T06:27:43;99057.09;;;9.63;78.63
46129;BME280;31860;45.186;5.790;2022-11-20T06:30:09;99053.63;;;9.61;78.25
46129;BME280;31860;45.186;5.790;2022-11-20T06:32:34;99058.84;;;9.59;77.84
46129;BME280;31860;45.186;5.790;2022-11-20T06:35:00;99050.13;;;9.60;78.04
46129;BME280;31860;45.186;5.790;2022-11-20T06:37:25;99057.94;;;9.62;77.78
46129;BME280;31860;45.186;5.790;2022-11-20T06:39:50;99055.34;;;9.62;77.54
46129;BME280;31860;45.186;5.790;2022-11-20T06:42:16;99064.06;;;9.57;77.30
46129;BME280;31860;45.186;5.790;2022-11-20T06:44:41;99055.34;;;9.55;77.47
46129;BME280;31860;45.186;5.790;2022-11-20T06:47:06;99051.00;;;9.53;77.47
46129;BME280;31860;45.186;5.790;2022-11-20T06:49:32;99047.50;;;9.51;77.72
46129;BME280;31860;45.186;5.790;2022-11-20T06:51:59;99051.84;;;9.47;78.37
46129;BME280;31860;45.186;5.790;2022-11-20T06:54:24;99050.97;;;9.41;79.10
46129;BME280;31860;45.186;5.790;2022-11-20T06:56:50;99060.50;;;9.37;79.43
46129;BME280;31860;45.186;5.790;2022-11-20T06:59:15;99057.91;;;9.34;79.02
46129;BME280;31860;45.186;5.790;2022-11-20T07:01:41;99057.03;;;9.29;79.22
46129;BME280;31860;45.186;5.790;2022-11-20T07:04:06;99063.97;;;9.27;79.45
46129;BME280;31860;45.186;5.790;2022-11-20T07:06:32;99066.59;;;9.27;78.88
46129;BME280;31860;45.186;5.790;2022-11-20T07:08:57;99069.19;;;9.27;79.14
46129;BME280;31860;45.186;5.790;2022-11-20T07:11:23;99062.22;;;9.23;79.09
46129;BME280;31860;45.186;5.790;2022-11-20T07:13:48;99069.16;;;9.21;78.91
46129;BME280;31860;45.186;5.790;2022-11-20T07:16:14;99069.16;;;9.21;79.11
46129;BME280;31860;45.186;5.790;2022-11-20T07:18:39;99079.59;;;9.23;79.17
46129;BME280;31860;45.186;5.790;2022-11-20T07:21:09;99083.94;;;9.25;79.48
46129;BME280;31860;45.186;5.790;2022-11-20T07:23:35;99083.94;;;9.27;79.68
46129;BME280;31860;45.186;5.790;2022-11-20T07:26:09;99093.50;;;9.26;79.75
46129;BME280;31860;45.186;5.790;2022-11-20T07:28:35;99103.06;;;9.27;79.59
46129;BME280;31860;45.186;5.790;2022-11-20T07:31:01;99091.75;;;9.28;79.92
46129;BME280;31860;45.186;5.790;2022-11-20T07:33:27;99095.25;;;9.29;80.11
46129;BME280;31860;45.186;5.790;2022-11-20T07:35:52;99099.59;;;9.28;80.10
46129;BME280;31860;45.186;5.790;2022-11-20T07:38:17;99096.09;;;9.28;79.81
46129;BME280;31860;45.186;5.790;2022-11-20T07:40:43;99100.47;;;9.27;79.67
46129;BME280;31860;45.186;5.790;2022-11-20T07:43:09;99108.28;;;9.29;80.06
46129;BME280;31860;45.186;5.790;2022-11-20T07:45:34;99108.28;;;9.32;79.87
46129;BME280;31860;45.186;5.790;2022-11-20T07:48:00;99105.66;;;9.33;80.48
46129;BME280;31860;45.186;5.790;2022-11-20T07:50:26;99116.13;;;9.35;80.59
46129;BME280;31860;45.186;5.790;2022-11-20T07:52:51;99110.03;;;9.37;80.41
46129;BME280;31860;45.186;5.790;2022-11-20T07:55:17;99112.66;;;9.40;79.95
46129;BME280;31860;45.186;5.790;2022-11-20T07:57:43;99113.50;;;9.41;80.16
46129;BME280;31860;45.186;5.790;2022-11-20T08:00:10;99100.50;;;9.42;79.88
46129;BME280;31860;45.186;5.790;2022-11-20T08:02:37;99105.72;;;9.42;80.29
46129;BME280;31860;45.186;5.790;2022-11-20T08:05:04;99102.25;;;9.43;80.35
46129;BME280;31860;45.186;5.790;2022-11-20T08:07:35;99103.13;;;9.42;80.58
46129;BME280;31860;45.186;5.790;2022-11-20T08:10:00;99101.34;;;9.43;80.80
46129;BME280;31860;45.186;5.790;2022-11-20T08:12:26;99111.81;;;9.44;81.24
46129;BME280;31860;45.186;5.790;2022-11-20T08:15:10;99109.22;;;9.44;81.20
46129;BME280;31860;45.186;5.790;2022-11-20T08:17:35;99104.88;;;9.48;81.41
46129;BME280;31860;45.186;5.790;2022-11-20T08:20:00;99109.19;;;9.50;81.10
46129;BME280;31860;45.186;5.790;2022-11-20T08:22:26;99110.94;;;9.56;81.23
46129;BME280;31860;45.186;5.790;2022-11-20T08:24:51;99116.19;;;9.61;81.16
46129;BME280;31860;45.186;5.790;2022-11-20T08:27:16;99111.84;;;9.64;81.81
46129;BME280;31860;45.186;5.790;2022-11-20T08:29:42;99111.00;;;9.70;82.10
46129;BME280;31860;45.186;5.790;2022-11-20T08:32:07;99113.59;;;9.77;82.17
46129;BME280;31860;45.186;5.790;2022-11-20T08:34:32;99120.56;;;9.84;81.75
46129;BME280;31860;45.186;5.790;2022-11-20T08:36:58;99111.03;;;9.88;81.82
46129;BME280;31860;45.186;5.790;2022-11-20T08:39:23;99116.22;;;9.94;81.66
46129;BME280;31860;45.186;5.790;2022-11-20T08:41:49;99112.75;;;9.99;81.03
46129;BME280;31860;45.186;5.790;2022-11-20T08:44:14;99103.22;;;10.03;81.01
46129;BME280;31860;45.186;5.790;2022-11-20T08:46:41;99105.81;;;10.09;81.60
46129;BME280;31860;45.186;5.790;2022-11-20T08:49:10;99109.34;;;10.14;81.88
46129;BME280;31860;45.186;5.790;2022-11-20T08:51:36;99102.38;;;10.19;82.06
46129;BME280;31860;45.186;5.790;2022-11-20T08:54:03;99109.34;;;10.23;82.99
46129;BME280;31860;45.186;5.790;2022-11-20T08:56:28;99104.13;;;10.29;83.67
46129;BME280;31860;45.186;5.790;2022-11-20T08:58:53;99105.84;;;10.31;83.33
46129;BME280;31860;45.186;5.790;2022-11-20T09:01:20;99107.59;;;10.34;83.15
46129;BME280;31860;45.186;5.790;2022-11-20T09:03:46;99105.00;;;10.37;82.17
46129;BME280;31860;45.186;5.790;2022-11-20T09:06:13;99098.03;;;10.42;81.41
46129;BME280;31860;45.186;5.790;2022-11-20T09:08:38;99102.38;;;10.46;81.60
46129;BME280;31860;45.186;5.790;2022-11-20T09:11:04;99100.63;;;10.49;82.33
46129;BME280;31860;45.186;5.790;2022-11-20T09:13:31;99103.22;;;10.54;81.97
46129;BME280;31860;45.186;5.790;2022-11-20T09:15:59;99100.59;;;10.59;82.16
46129;BME280;31860;45.186;5.790;2022-11-20T09:18:25;99109.31;;;10.62;81.48
46129;BME280;31860;45.186;5.790;2022-11-20T09:20:51;99109.28;;;10.68;80.66
46129;BME280;31860;45.186;5.790;2022-11-20T09:23:17;99105.81;;;10.71;80.53
46129;BME280;31860;45.186;5.790;2022-11-20T09:25:43;99112.78;;;10.75;79.74
46129;BME280;31860;45.186;5.790;2022-11-20T09:28:08;99117.97;;;10.79;80.33
46129;BME280;31860;45.186;5.790;2022-11-20T09:30:34;99123.19;;;10.84;79.88
46129;BME280;31860;45.186;5.790;2022-11-20T09:33:00;99119.72;;;10.88;78.26
46129;BME280;31860;45.186;5.790;2022-11-20T09:35:26;99123.19;;;10.91;77.92
46129;BME280;31860;45.186;5.790;2022-11-20T09:37:52;99124.03;;;10.98;78.34
46129;BME280;31860;45.186;5.790;2022-11-20T09:40:20;99126.63;;;11.02;77.49
46129;BME280;31860;45.186;5.790;2022-11-20T09:43:10;99131.84;;;11.08;77.50
46129;BME280;31860;45.186;5.790;2022-11-20T09:45:58;99140.50;;;11.16;77.42
46129;BME280;31860;45.186;5.790;2022-11-20T09:51:50;99145.72;;;11.27;75.83
46129;BME280;31860;45.186;5.790;2022-11-20T09:54:17;99143.97;;;11.35;74.89
46129;BME280;31860;45.186;5.790;2022-11-20T09:56:51;99147.41;;;11.41;73.63
46129;BME280;31860;45.186;5.790;2022-11-20T09:59:33;99143.88;;;11.47;72.37
46129;BME280;31860;45.186;5.790;2022-11-20T10:02:03;99149.09;;;11.52;71.09
46129;BME280;31860;45.186;5.790;2022-11-20T10:04:32;99153.41;;;11.60;71.42
46129;BME280;31860;45.186;5.790;2022-11-20T10:07:26;99151.63;;;11.71;71.33
46129;BME280;31860;45.186;5.790;2022-11-20T10:09:55;99154.22;;;11.82;70.66
46129;BME280;31860;45.186;5.790;2022-11-20T10:18:17;99150.50;;;12.17;67.99
46129;BME280;31860;45.186;5.790;2022-11-20T10:29:21;99156.97;;;12.77;65.20
46129;BME280;31860;45.186;5.790;2022-11-20T10:32:01;99154.22;;;12.88;64.74
46129;BME280;31860;45.186;5.790;2022-11-20T10:34:43;99144.56;;;12.94;64.02
46129;BME280;31860;45.186;5.790;2022-11-20T10:37:24;99145.38;;;13.01;64.05
46129;BME280;31860;45.186;5.790;2022-11-20T10:42:52;99153.22;;;13.04;62.16
46129;BME280;31860;45.186;5.790;2022-11-20T10:47:49;99157.59;;;13.02;62.81
46129;BME280;31860;45.186;5.790;2022-11-20T10:50:19;99151.47;;;13.03;62.66
46129;BME280;31860;45.186;5.790;2022-11-20T10:55:33;99142.69;;;13.07;62.49
46129;BME280;31860;45.186;5.790;2022-11-20T10:58:12;99153.22;;;13.05;62.31
46129;BME280;31860;45.186;5.790;2022-11-20T11:00:38;99149.72;;;13.03;62.13
46129;BME280;31860;45.186;5.790;2022-11-20T11:03:26;99145.38;;;13.01;61.30
46129;BME280;31860;45.186;5.790;2022-11-20T11:06:14;99144.53;;;12.99;61.28
46129;BME280;31860;45.186;5.790;2022-11-20T11:08:40;99129.69;;;12.96;61.73
46129;BME280;31860;45.186;5.790;2022-11-20T11:11:29;99139.31;;;12.94;61.50
46129;BME280;31860;45.186;5.790;2022-11-20T11:14:09;99141.94;;;12.94;61.59
46129;BME280;31860;45.186;5.790;2022-11-20T11:16:34;99134.94;;;12.96;62.02
46129;BME280;31860;45.186;5.790;2022-11-20T11:19:12;99138.41;;;12.95;61.01
46129;BME280;31860;45.186;5.790;2022-11-20T11:21:37;99138.44;;;12.97;60.83
46129;BME280;31860;45.186;5.790;2022-11-20T11:24:19;99133.16;;;12.98;60.72
46129;BME280;31860;45.186;5.790;2022-11-20T11:26:52;99127.88;;;13.01;60.83
46129;BME280;31860;45.186;5.790;2022-11-20T11:29:20;99120.88;;;13.02;60.52
46129;BME280;31860;45.186;5.790;2022-11-20T11:31:45;99121.72;;;13.07;60.37
46129;BME280;31860;45.186;5.790;2022-11-20T11:36:37;99098.88;;;13.16;60.22
46129;BME280;31860;45.186;5.790;2022-11-20T11:39:05;99092.69;;;13.22;59.88
46129;BME280;31860;45.186;5.790;2022-11-20T11:41:33;99094.38;;;13.29;59.72
46129;BME280;31860;45.186;5.790;2022-11-20T11:47:00;99064.38;;;13.48;59.44
46129;BME280;31860;45.186;5.790;2022-11-20T11:49:25;99071.22;;;13.58;58.85
46129;BME280;31860;45.186;5.790;2022-11-20T11:57:20;99049.66;;;13.96;58.26
46129;BME280;31860;45.186;5.790;2022-11-20T11:59:59;99036.38;;;14.06;57.51
46129;BME280;31860;45.186;5.790;2022-11-20T12:07:51;99026.09;;;14.43;56.51
46129;BME280;31860;45.186;5.790;2022-11-20T12:10:20;99025.91;;;14.54;56.81
46129;BME280;31860;45.186;5.790;2022-11-20T12:15:50;99030.72;;;14.76;56.38
46129;BME280;31860;45.186;5.790;2022-11-20T12:18:18;99026.19;;;14.84;55.93
46129;BME280;31860;45.186;5.790;2022-11-20T12:20:52;99016.31;;;14.95;55.66
46129;BME280;31860;45.186;5.790;2022-11-20T12:23:35;99007.38;;;15.04;55.21
46129;BME280;31860;45.186;5.790;2022-11-20T12:26:17;99007.16;;;15.14;54.98
46129;BME280;31860;45.186;5.790;2022-11-20T12:28:56;99005.13;;;15.26;54.56
46129;BME280;31860;45.186;5.790;2022-11-20T12:31:42;99001.41;;;15.36;54.09
46129;BME280;31860;45.186;5.790;2022-11-20T12:34:13;98993.38;;;15.43;54.21
46129;BME280;31860;45.186;5.790;2022-11-20T12:36:56;98988.03;;;15.48;53.98
46129;BME280;31860;45.186;5.790;2022-11-20T12:52:53;98945.13;;;15.79;52.14
46129;BME280;31860;45.186;5.790;2022-11-20T12:55:49;98948.44;;;15.86;50.82
46129;BME280;31860;45.186;5.790;2022-11-20T12:58:57;98938.63;;;15.92;52.16
46129;BME280;31860;45.186;5.790;2022-11-20T13:01:50;98933.16;;;16.00;49.93
46129;BME280;31860;45.186;5.790;2022-11-20T13:04:31;98926.75;;;16.10;51.54
46129;BME280;31860;45.186;5.790;2022-11-20T13:07:12;98917.94;;;16.11;50.31
46129;BME280;31860;45.186;5.790;2022-11-20T13:09:43;98915.00;;;16.23;50.87
46129;BME280;31860;45.186;5.790;2022-11-20T13:12:30;98918.41;;;16.27;49.11
46129;BME280;31860;45.186;5.790;2022-11-20T13:15:07;98919.03;;;16.36;50.28
46129;BME280;31860;45.186;5.790;2022-11-20T13:17:58;98930.25;;;16.43;49.12
46129;BME280;31860;45.186;5.790;2022-11-20T13:20:24;98931.03;;;16.48;49.82
46129;BME280;31860;45.186;5.790;2022-11-20T13:22:53;98935.38;;;16.49;49.74
46129;BME280;31860;45.186;5.790;2022-11-20T13:25:30;98938.78;;;16.52;48.77
46129;BME280;31860;45.186;5.790;2022-11-20T13:27:58;98926.44;;;16.54;49.43
46129;BME280;31860;45.186;5.790;2022-11-20T13:30:25;98930.00;;;16.53;49.78
46129;BME280;31860;45.186;5.790;2022-11-20T13:35:32;98930.13;;;16.47;48.06
46129;BME280;31860;45.186;5.790;2022-11-20T13:38:10;98935.50;;;16.43;48.89
46129;BME280;31860;45.186;5.790;2022-11-20T13:40:38;98942.66;;;16.39;49.17
46129;BME280;31860;45.186;5.790;2022-11-20T13:43:11;98945.50;;;16.32;48.67
46129;BME280;31860;45.186;5.790;2022-11-20T13:45:40;98956.25;;;16.24;49.23
46129;BME280;31860;45.186;5.790;2022-11-20T13:48:21;98954.72;;;16.16;47.91
46129;BME280;31860;45.186;5.790;2022-11-20T13:50:56;98953.06;;;16.11;48.43
46129;BME280;31860;45.186;5.790;2022-11-20T14:01:23;98938.28;;;15.72;49.18
46129;BME280;31860;45.186;5.790;2022-11-20T14:03:50;98931.47;;;15.64;49.88
46129;BME280;31860;45.186;5.790;2022-11-20T14:06:41;98932.66;;;15.51;48.70
46129;BME280;31860;45.186;5.790;2022-11-20T14:09:12;98931.97;;;15.43;49.79
46129;BME280;31860;45.186;5.790;2022-11-20T14:11:46;98940.97;;;15.33;49.85
46129;BME280;31860;45.186;5.790;2022-11-20T14:14:21;98941.19;;;15.22;49.99
46129;BME280;31860;45.186;5.790;2022-11-20T14:16:48;98943.25;;;15.09;49.46
46129;BME280;31860;45.186;5.790;2022-11-20T14:21:48;98923.53;;;14.89;50.98
46129;BME280;31860;45.186;5.790;2022-11-20T14:24:19;98918.44;;;14.81;51.05
46129;BME280;31860;45.186;5.790;2022-11-20T14:26:45;98915.97;;;14.74;51.42
46129;BME280;31860;45.186;5.790;2022-11-20T14:29:19;98917.84;;;14.67;51.20
46129;BME280;31860;45.186;5.790;2022-11-20T14:31:45;98920.59;;;14.61;51.57
46129;BME280;31860;45.186;5.790;2022-11-20T14:34:22;98921.63;;;14.54;51.35